sensor_id;sensor_type;location;lat;lon;timestamp;pressure;altitude;pressure_sealevel;temperature;humidity
56689;BME280;42565;53.342;-1.534;2024-01-06T00:00:31;98364.38;;;6.65;71.57
56689;BME280;42565;53.342;-1.534;2024-01-06T00:02:57;98366.81;;;6.51;71.16
56689;BME280;42565;53.342;-1.534;2024-01-06T00:05:24;98368.57;;;6.18;72.02
56689;BME280;42565;53.342;-1.534;2024-01-06T00:07:51;98369.63;;;6.02;72.63
56689;BME280;42565;53.342;-1.534;2024-01-06T00:10:18;98370.45;;;5.85;72.23
56689;BME280;42565;53.342;-1.534;2024-01-06T00:12:44;98372.32;;;6.29;72.25
56689;BME280;42565;53.342;-1.534;2024-01-06T00:15:11;98379.74;;;5.94;72.44
56689;BME280;42565;53.342;-1.534;2024-01-06T00:17:39;98384.32;;;5.64;72.92
56689;BME280;42565;53.342;-1.534;2024-01-06T00:20:07;98385.05;;;6.27;71.69
56689;BME280;42565;53.342;-1.534;2024-01-06T00:22:35;98389.98;;;5.68;73.03
56689;BME280;42565;53.342;-1.534;2024-01-06T00:25:02;98396.20;;;6.26;71.72
56689;BME280;42565;53.342;-1.534;2024-01-06T00:27:28;98401.15;;;6.33;71.08
56689;BME280;42565;53.342;-1.534;2024-01-06T00:29:55;98405.86;;;6.33;71.24
56689;BME280;42565;53.342;-1.534;2024-01-06T00:32:22;98408.62;;;5.95;71.98
56689;BME280;42565;53.342;-1.534;2024-01-06T00:34:48;98412.76;;;5.89;72.17
56689;BME280;42565;53.342;-1.534;2024-01-06T00:37:15;98412.16;;;6.09;71.67
56689;BME280;42565;53.342;-1.534;2024-01-06T00:39:42;98418.49;;;6.28;71.68
56689;BME280;42565;53.342;-1.534;2024-01-06T00:42:09;98420.45;;;6.32;71.31
56689;BME280;42565;53.342;-1.534;2024-01-06T00:44:36;98420.21;;;6.22;70.75
56689;BME280;42565;53.342;-1.534;2024-01-06T00:47:04;98416.19;;;6.37;70.16
56689;BME280;42565;53.342;-1.534;2024-01-06T00:49:31;98423.90;;;6.33;70.30
56689;BME280;42565;53.342;-1.534;2024-01-06T00:51:57;98426.42;;;6.34;70.48
56689;BME280;42565;53.342;-1.534;2024-01-06T00:54:24;98426.39;;;6.40;71.38
56689;BME280;42565;53.342;-1.534;2024-01-06T00:56:51;98431.76;;;6.28;70.81
56689;BME280;42565;53.342;-1.534;2024-01-06T00:59:18;98433.64;;;6.51;70.80
56689;BME280;42565;53.342;-1.534;2024-01-06T01:01:44;98436.55;;;6.21;71.54
56689;BME280;42565;53.342;-1.534;2024-01-06T01:04:11;98435.98;;;6.55;70.85
56689;BME280;42565;53.342;-1.534;2024-01-06T01:06:38;98436.20;;;6.48;70.89
56689;BME280;42565;53.342;-1.534;2024-01-06T01:09:05;98435.62;;;6.45;70.62
56689;BME280;42565;53.342;-1.534;2024-01-06T01:11:31;98441.81;;;6.35;70.99
56689;BME280;42565;53.342;-1.534;2024-01-06T01:13:58;98443.14;;;6.40;71.19
56689;BME280;42565;53.342;-1.534;2024-01-06T01:16:25;98446.01;;;6.19;71.54
56689;BME280;42565;53.342;-1.534;2024-01-06T01:18:52;98447.68;;;6.36;70.98
56689;BME280;42565;53.342;-1.534;2024-01-06T01:21:19;98451.01;;;6.17;72.24
56689;BME280;42565;53.342;-1.534;2024-01-06T01:23:46;98454.94;;;6.83;69.56
56689;BME280;42565;53.342;-1.534;2024-01-06T01:26:12;98457.92;;;6.87;69.23
56689;BME280;42565;53.342;-1.534;2024-01-06T01:28:39;98460.24;;;6.84;68.33
56689;BME280;42565;53.342;-1.534;2024-01-06T01:31:06;98464.20;;;6.40;69.09
56689;BME280;42565;53.342;-1.534;2024-01-06T01:33:34;98460.77;;;6.54;68.91
56689;BME280;42565;53.342;-1.534;2024-01-06T01:36:00;98466.69;;;6.07;69.63
56689;BME280;42565;53.342;-1.534;2024-01-06T01:38:27;98470.02;;;6.48;69.93
56689;BME280;42565;53.342;-1.534;2024-01-06T01:40:55;98474.25;;;6.33;69.50
56689;BME280;42565;53.342;-1.534;2024-01-06T01:43:21;98476.35;;;6.49;69.51
56689;BME280;42565;53.342;-1.534;2024-01-06T01:45:51;98476.38;;;6.62;68.96
56689;BME280;42565;53.342;-1.534;2024-01-06T01:48:20;98483.29;;;6.59;68.85
56689;BME280;42565;53.342;-1.534;2024-01-06T01:50:47;98484.70;;;6.32;68.45
56689;BME280;42565;53.342;-1.534;2024-01-06T01:53:14;98485.15;;;6.71;68.16
56689;BME280;42565;53.342;-1.534;2024-01-06T01:55:42;98490.27;;;6.72;67.82
56689;BME280;42565;53.342;-1.534;2024-01-06T01:58:12;98490.95;;;6.41;67.89
56689;BME280;42565;53.342;-1.534;2024-01-06T02:00:39;98494.35;;;6.46;67.95
56689;BME280;42565;53.342;-1.534;2024-01-06T02:03:07;98495.47;;;6.56;67.46
56689;BME280;42565;53.342;-1.534;2024-01-06T02:05:36;98498.78;;;6.54;67.94
56689;BME280;42565;53.342;-1.534;2024-01-06T02:08:03;98500.98;;;6.53;68.89
56689;BME280;42565;53.342;-1.534;2024-01-06T02:10:30;98502.08;;;6.31;68.92
56689;BME280;42565;53.342;-1.534;2024-01-06T02:12:57;98504.34;;;6.23;68.76
56689;BME280;42565;53.342;-1.534;2024-01-06T02:15:33;98504.92;;;6.48;68.03
56689;BME280;42565;53.342;-1.534;2024-01-06T02:18:00;98509.27;;;5.97;68.64
56689;BME280;42565;53.342;-1.534;2024-01-06T02:20:28;98515.68;;;6.45;68.69
56689;BME280;42565;53.342;-1.534;2024-01-06T02:22:57;98523.80;;;6.49;67.72
56689;BME280;42565;53.342;-1.534;2024-01-06T02:25:24;98532.06;;;6.31;68.91
56689;BME280;42565;53.342;-1.534;2024-01-06T02:27:50;98533.75;;;6.06;68.94
56689;BME280;42565;53.342;-1.534;2024-01-06T02:30:17;98541.16;;;6.40;68.78
56689;BME280;42565;53.342;-1.534;2024-01-06T02:32:45;98544.82;;;5.87;69.26
56689;BME280;42565;53.342;-1.534;2024-01-06T02:35:12;98553.96;;;6.30;68.65
56689;BME280;42565;53.342;-1.534;2024-01-06T02:37:39;98554.87;;;6.10;69.43
56689;BME280;42565;53.342;-1.534;2024-01-06T02:40:07;98561.50;;;6.32;67.92
56689;BME280;42565;53.342;-1.534;2024-01-06T02:42:34;98562.58;;;6.24;67.41
56689;BME280;42565;53.342;-1.534;2024-01-06T02:45:01;98567.99;;;6.42;67.60
56689;BME280;42565;53.342;-1.534;2024-01-06T02:47:28;98569.81;;;6.18;67.22
56689;BME280;42565;53.342;-1.534;2024-01-06T02:49:55;98570.46;;;6.50;67.25
56689;BME280;42565;53.342;-1.534;2024-01-06T02:52:22;98571.39;;;6.66;66.99
56689;BME280;42565;53.342;-1.534;2024-01-06T02:54:49;98571.00;;;6.47;67.48
56689;BME280;42565;53.342;-1.534;2024-01-06T02:57:15;98570.79;;;6.48;66.39
56689;BME280;42565;53.342;-1.534;2024-01-06T02:59:42;98575.31;;;6.70;66.89
56689;BME280;42565;53.342;-1.534;2024-01-06T03:02:09;98578.08;;;7.01;65.74
56689;BME280;42565;53.342;-1.534;2024-01-06T03:04:36;98583.04;;;6.87;65.54
56689;BME280;42565;53.342;-1.534;2024-01-06T03:07:03;98589.01;;;6.46;65.99
56689;BME280;42565;53.342;-1.534;2024-01-06T03:09:30;98588.55;;;6.46;66.14
56689;BME280;42565;53.342;-1.534;2024-01-06T03:11:57;98589.60;;;6.65;65.54
56689;BME280;42565;53.342;-1.534;2024-01-06T03:14:23;98592.77;;;6.35;65.87
56689;BME280;42565;53.342;-1.534;2024-01-06T03:16:50;98598.69;;;6.27;65.37
56689;BME280;42565;53.342;-1.534;2024-01-06T03:19:17;98602.09;;;6.57;65.26
56689;BME280;42565;53.342;-1.534;2024-01-06T03:21:44;98602.92;;;7.03;63.56
56689;BME280;42565;53.342;-1.534;2024-01-06T03:24:10;98611.03;;;6.93;63.63
56689;BME280;42565;53.342;-1.534;2024-01-06T03:26:37;98612.70;;;6.87;63.29
56689;BME280;42565;53.342;-1.534;2024-01-06T03:29:04;98621.61;;;6.51;64.06
56689;BME280;42565;53.342;-1.534;2024-01-06T03:31:30;98622.96;;;6.88;63.24
56689;BME280;42565;53.342;-1.534;2024-01-06T03:33:57;98626.10;;;7.03;63.78
56689;BME280;42565;53.342;-1.534;2024-01-06T03:36:24;98632.20;;;6.75;64.32
56689;BME280;42565;53.342;-1.534;2024-01-06T03:38:51;98631.85;;;6.67;64.58
56689;BME280;42565;53.342;-1.534;2024-01-06T03:41:17;98632.20;;;6.56;64.98
56689;BME280;42565;53.342;-1.534;2024-01-06T03:43:44;98630.37;;;6.43;64.92
56689;BME280;42565;53.342;-1.534;2024-01-06T03:46:11;98633.53;;;6.28;65.04
56689;BME280;42565;53.342;-1.534;2024-01-06T03:48:38;98630.05;;;6.20;66.20
56689;BME280;42565;53.342;-1.534;2024-01-06T03:51:04;98631.70;;;6.46;65.62
56689;BME280;42565;53.342;-1.534;2024-01-06T03:53:32;98635.15;;;6.77;64.65
56689;BME280;42565;53.342;-1.534;2024-01-06T03:55:59;98638.40;;;6.81;64.87
56689;BME280;42565;53.342;-1.534;2024-01-06T03:58:25;98640.87;;;6.09;66.11
56689;BME280;42565;53.342;-1.534;2024-01-06T04:00:52;98644.28;;;6.18;66.75
56689;BME280;42565;53.342;-1.534;2024-01-06T04:03:19;98644.99;;;6.34;66.55
56689;BME280;42565;53.342;-1.534;2024-01-06T04:05:46;98648.72;;;6.88;64.67
56689;BME280;42565;53.342;-1.534;2024-01-06T04:08:12;98651.29;;;6.39;64.46
56689;BME280;42565;53.342;-1.534;2024-01-06T04:10:39;98653.54;;;6.13;65.25
56689;BME280;42565;53.342;-1.534;2024-01-06T04:13:06;98652.61;;;6.38;65.48
56689;BME280;42565;53.342;-1.534;2024-01-06T04:15:33;98652.84;;;6.07;65.12
56689;BME280;42565;53.342;-1.534;2024-01-06T04:18:02;98650.86;;;5.96;65.05
56689;BME280;42565;53.342;-1.534;2024-01-06T04:20:29;98651.27;;;6.10;64.54
56689;BME280;42565;53.342;-1.534;2024-01-06T04:22:56;98656.95;;;5.87;65.26
56689;BME280;42565;53.342;-1.534;2024-01-06T04:25:24;98654.95;;;5.77;65.03
56689;BME280;42565;53.342;-1.534;2024-01-06T04:27:51;98661.65;;;6.06;63.84
56689;BME280;42565;53.342;-1.534;2024-01-06T04:30:19;98664.47;;;5.76;64.92
56689;BME280;42565;53.342;-1.534;2024-01-06T04:32:47;98661.95;;;5.85;64.18
56689;BME280;42565;53.342;-1.534;2024-01-06T04:35:13;98663.65;;;5.99;64.62
56689;BME280;42565;53.342;-1.534;2024-01-06T04:37:41;98664.83;;;5.87;64.87
56689;BME280;42565;53.342;-1.534;2024-01-06T04:40:08;98672.30;;;5.45;66.23
56689;BME280;42565;53.342;-1.534;2024-01-06T04:42:35;98674.36;;;5.69;65.74
56689;BME280;42565;53.342;-1.534;2024-01-06T04:45:02;98667.93;;;5.38;65.52
56689;BME280;42565;53.342;-1.534;2024-01-06T04:47:30;98668.47;;;5.40;65.46
56689;BME280;42565;53.342;-1.534;2024-01-06T04:49:56;98666.93;;;5.70;64.77
56689;BME280;42565;53.342;-1.534;2024-01-06T04:52:23;98665.83;;;5.60;64.73
56689;BME280;42565;53.342;-1.534;2024-01-06T04:54:50;98673.29;;;5.46;64.68
56689;BME280;42565;53.342;-1.534;2024-01-06T04:57:17;98674.12;;;5.21;65.44
56689;BME280;42565;53.342;-1.534;2024-01-06T04:59:44;98675.23;;;4.87;66.25
56689;BME280;42565;53.342;-1.534;2024-01-06T05:02:11;98676.36;;;5.29;65.90
56689;BME280;42565;53.342;-1.534;2024-01-06T05:04:38;98678.14;;;5.42;65.59
56689;BME280;42565;53.342;-1.534;2024-01-06T05:07:04;98681.48;;;5.62;65.60
56689;BME280;42565;53.342;-1.534;2024-01-06T05:09:31;98685.56;;;5.20;66.27
56689;BME280;42565;53.342;-1.534;2024-01-06T05:11:58;98683.16;;;5.25;65.21
56689;BME280;42565;53.342;-1.534;2024-01-06T05:14:25;98683.81;;;5.25;65.58
56689;BME280;42565;53.342;-1.534;2024-01-06T05:16:52;98688.91;;;5.72;64.47
56689;BME280;42565;53.342;-1.534;2024-01-06T05:19:19;98690.55;;;5.18;65.69
56689;BME280;42565;53.342;-1.534;2024-01-06T05:21:47;98694.79;;;4.76;66.13
56689;BME280;42565;53.342;-1.534;2024-01-06T05:24:14;98700.12;;;5.20;65.29
56689;BME280;42565;53.342;-1.534;2024-01-06T05:26:42;98703.01;;;5.30;64.77
56689;BME280;42565;53.342;-1.534;2024-01-06T05:29:09;98705.14;;;5.25;65.07
56689;BME280;42565;53.342;-1.534;2024-01-06T05:31:35;98706.59;;;5.14;65.75
56689;BME280;42565;53.342;-1.534;2024-01-06T05:34:02;98706.58;;;4.74;66.25
56689;BME280;42565;53.342;-1.534;2024-01-06T05:36:29;98709.22;;;4.77;65.95
56689;BME280;42565;53.342;-1.534;2024-01-06T05:38:56;98717.08;;;5.15;65.71
56689;BME280;42565;53.342;-1.534;2024-01-06T05:41:22;98720.66;;;5.62;64.45
56689;BME280;42565;53.342;-1.534;2024-01-06T05:43:49;98725.63;;;5.74;62.65
56689;BME280;42565;53.342;-1.534;2024-01-06T05:46:21;98728.51;;;5.39;62.67
56689;BME280;42565;53.342;-1.534;2024-01-06T05:48:48;98729.76;;;5.96;61.37
56689;BME280;42565;53.342;-1.534;2024-01-06T05:51:15;98733.09;;;5.97;61.24
56689;BME280;42565;53.342;-1.534;2024-01-06T05:53:41;98734.29;;;6.18;61.72
56689;BME280;42565;53.342;-1.534;2024-01-06T05:56:08;98735.96;;;5.60;62.27
56689;BME280;42565;53.342;-1.534;2024-01-06T05:58:35;98740.50;;;5.50;62.55
56689;BME280;42565;53.342;-1.534;2024-01-06T06:01:02;98736.93;;;6.29;60.81
56689;BME280;42565;53.342;-1.534;2024-01-06T06:03:29;98739.72;;;5.76;61.06
56689;BME280;42565;53.342;-1.534;2024-01-06T06:05:56;98746.60;;;5.67;61.65
56689;BME280;42565;53.342;-1.534;2024-01-06T06:08:23;98749.04;;;6.01;61.44
56689;BME280;42565;53.342;-1.534;2024-01-06T06:10:50;98753.54;;;5.84;62.14
56689;BME280;42565;53.342;-1.534;2024-01-06T06:13:16;98756.34;;;5.51;61.70
56689;BME280;42565;53.342;-1.534;2024-01-06T06:15:43;98759.83;;;5.38;61.81
56689;BME280;42565;53.342;-1.534;2024-01-06T06:18:10;98763.22;;;5.67;62.16
56689;BME280;42565;53.342;-1.534;2024-01-06T06:20:36;98765.20;;;5.69;61.43
56689;BME280;42565;53.342;-1.534;2024-01-06T06:23:03;98765.59;;;5.69;60.92
56689;BME280;42565;53.342;-1.534;2024-01-06T06:25:31;98766.77;;;5.44;61.08
56689;BME280;42565;53.342;-1.534;2024-01-06T06:27:58;98770.69;;;5.69;61.35
56689;BME280;42565;53.342;-1.534;2024-01-06T06:30:24;98774.73;;;5.43;61.92
56689;BME280;42565;53.342;-1.534;2024-01-06T06:32:51;98780.75;;;5.51;61.46
56689;BME280;42565;53.342;-1.534;2024-01-06T06:35:18;98785.44;;;5.48;61.89
56689;BME280;42565;53.342;-1.534;2024-01-06T06:37:45;98787.26;;;4.75;62.20
56689;BME280;42565;53.342;-1.534;2024-01-06T06:40:12;98793.02;;;5.00;62.78
56689;BME280;42565;53.342;-1.534;2024-01-06T06:42:39;98794.16;;;5.26;62.34
56689;BME280;42565;53.342;-1.534;2024-01-06T06:45:07;98800.58;;;5.29;61.92
56689;BME280;42565;53.342;-1.534;2024-01-06T06:47:35;98801.41;;;5.12;62.36
56689;BME280;42565;53.342;-1.534;2024-01-06T06:50:02;98810.09;;;4.90;62.95
56689;BME280;42565;53.342;-1.534;2024-01-06T06:52:29;98813.23;;;4.54;63.49
56689;BME280;42565;53.342;-1.534;2024-01-06T06:54:56;98813.19;;;5.11;63.56
56689;BME280;42565;53.342;-1.534;2024-01-06T06:57:23;98817.89;;;4.96;63.10
56689;BME280;42565;53.342;-1.534;2024-01-06T06:59:49;98824.65;;;4.74;63.90
56689;BME280;42565;53.342;-1.534;2024-01-06T07:02:17;98826.56;;;4.86;64.60
56689;BME280;42565;53.342;-1.534;2024-01-06T07:04:44;98835.79;;;4.45;65.81
56689;BME280;42565;53.342;-1.534;2024-01-06T07:07:10;98838.08;;;4.08;67.14
56689;BME280;42565;53.342;-1.534;2024-01-06T07:09:37;98841.38;;;4.72;65.82
56689;BME280;42565;53.342;-1.534;2024-01-06T07:12:04;98842.89;;;4.58;64.88
56689;BME280;42565;53.342;-1.534;2024-01-06T07:14:32;98845.36;;;4.76;64.29
56689;BME280;42565;53.342;-1.534;2024-01-06T07:16:59;98854.27;;;4.87;65.25
56689;BME280;42565;53.342;-1.534;2024-01-06T07:19:26;98859.16;;;4.40;65.14
56689;BME280;42565;53.342;-1.534;2024-01-06T07:21:53;98861.61;;;4.53;64.81
56689;BME280;42565;53.342;-1.534;2024-01-06T07:24:19;98864.29;;;4.59;63.78
56689;BME280;42565;53.342;-1.534;2024-01-06T07:26:46;98869.42;;;4.79;64.17
56689;BME280;42565;53.342;-1.534;2024-01-06T07:29:13;98874.04;;;5.00;63.93
56689;BME280;42565;53.342;-1.534;2024-01-06T07:31:40;98876.95;;;5.01;63.77
56689;BME280;42565;53.342;-1.534;2024-01-06T07:34:07;98882.60;;;4.57;64.09
56689;BME280;42565;53.342;-1.534;2024-01-06T07:36:34;98887.31;;;5.06;63.70
56689;BME280;42565;53.342;-1.534;2024-01-06T07:39:02;98892.66;;;4.12;65.05
56689;BME280;42565;53.342;-1.534;2024-01-06T07:41:29;98895.06;;;4.31;65.53
56689;BME280;42565;53.342;-1.534;2024-01-06T07:43:56;98897.12;;;4.14;66.24
56689;BME280;42565;53.342;-1.534;2024-01-06T07:46:23;98904.65;;;4.31;65.92
56689;BME280;42565;53.342;-1.534;2024-01-06T07:48:50;98906.18;;;4.65;65.59
56689;BME280;42565;53.342;-1.534;2024-01-06T07:51:16;98904.74;;;4.45;65.41
56689;BME280;42565;53.342;-1.534;2024-01-06T07:53:43;98907.67;;;4.08;65.38
56689;BME280;42565;53.342;-1.534;2024-01-06T07:56:10;98908.19;;;4.23;65.70
56689;BME280;42565;53.342;-1.534;2024-01-06T07:58:37;98911.28;;;4.40;66.19
56689;BME280;42565;53.342;-1.534;2024-01-06T08:01:04;98911.51;;;4.72;65.27
56689;BME280;42565;53.342;-1.534;2024-01-06T08:03:31;98920.76;;;4.38;65.40
56689;BME280;42565;53.342;-1.534;2024-01-06T08:05:58;98922.98;;;4.43;65.99
56689;BME280;42565;53.342;-1.534;2024-01-06T08:08:26;98924.80;;;4.84;64.54
56689;BME280;42565;53.342;-1.534;2024-01-06T08:10:53;98931.97;;;4.29;65.92
56689;BME280;42565;53.342;-1.534;2024-01-06T08:13:20;98938.50;;;4.50;66.29
56689;BME280;42565;53.342;-1.534;2024-01-06T08:15:46;98943.74;;;4.75;65.59
56689;BME280;42565;53.342;-1.534;2024-01-06T08:18:13;98947.74;;;4.49;66.07
56689;BME280;42565;53.342;-1.534;2024-01-06T08:20:40;98951.24;;;4.29;65.39
56689;BME280;42565;53.342;-1.534;2024-01-06T08:23:07;98956.04;;;4.53;65.14
56689;BME280;42565;53.342;-1.534;2024-01-06T08:25:34;98962.04;;;4.92;64.60
56689;BME280;42565;53.342;-1.534;2024-01-06T08:28:00;98965.77;;;4.32;64.51
56689;BME280;42565;53.342;-1.534;2024-01-06T08:30:28;98976.24;;;4.62;64.61
56689;BME280;42565;53.342;-1.534;2024-01-06T08:32:55;98981.12;;;4.97;64.42
56689;BME280;42565;53.342;-1.534;2024-01-06T08:35:21;98985.74;;;4.25;64.95
56689;BME280;42565;53.342;-1.534;2024-01-06T08:37:48;98989.98;;;4.48;64.17
56689;BME280;42565;53.342;-1.534;2024-01-06T08:40:15;98993.12;;;4.90;63.59
56689;BME280;42565;53.342;-1.534;2024-01-06T08:42:42;98997.75;;;4.59;64.33
56689;BME280;42565;53.342;-1.534;2024-01-06T08:45:09;98999.34;;;4.64;64.14
56689;BME280;42565;53.342;-1.534;2024-01-06T08:47:37;99008.33;;;4.53;63.95
56689;BME280;42565;53.342;-1.534;2024-01-06T08:50:05;99009.16;;;4.93;63.43
56689;BME280;42565;53.342;-1.534;2024-01-06T08:52:32;99018.45;;;5.19;62.39
56689;BME280;42565;53.342;-1.534;2024-01-06T08:54:59;99019.79;;;5.24;61.64
56689;BME280;42565;53.342;-1.534;2024-01-06T08:57:26;99015.78;;;5.58;60.40
56689;BME280;42565;53.342;-1.534;2024-01-06T08:59:52;99015.44;;;6.32;58.13
56689;BME280;42565;53.342;-1.534;2024-01-06T09:02:19;99018.01;;;6.54;56.59
56689;BME280;42565;53.342;-1.534;2024-01-06T09:04:46;99020.96;;;7.57;53.53
56689;BME280;42565;53.342;-1.534;2024-01-06T09:07:14;99023.41;;;8.28;50.81
56689;BME280;42565;53.342;-1.534;2024-01-06T09:09:40;99029.83;;;9.26;48.57
56689;BME280;42565;53.342;-1.534;2024-01-06T09:12:08;99034.45;;;9.52;47.11
56689;BME280;42565;53.342;-1.534;2024-01-06T09:14:35;99037.22;;;9.57;46.12
56689;BME280;42565;53.342;-1.534;2024-01-06T09:17:02;99038.01;;;10.23;45.17
56689;BME280;42565;53.342;-1.534;2024-01-06T09:19:30;99043.93;;;10.23;44.71
56689;BME280;42565;53.342;-1.534;2024-01-06T09:21:57;99045.68;;;10.73;44.33
56689;BME280;42565;53.342;-1.534;2024-01-06T09:24:25;99050.06;;;11.90;42.11
56689;BME280;42565;53.342;-1.534;2024-01-06T09:26:52;99053.24;;;12.23;40.68
56689;BME280;42565;53.342;-1.534;2024-01-06T09:29:19;99051.85;;;12.69;38.91
56689;BME280;42565;53.342;-1.534;2024-01-06T09:31:45;99058.55;;;13.67;37.55
56689;BME280;42565;53.342;-1.534;2024-01-06T09:34:13;99059.88;;;13.54;37.00
56689;BME280;42565;53.342;-1.534;2024-01-06T09:36:40;99058.87;;;14.36;36.48
56689;BME280;42565;53.342;-1.534;2024-01-06T09:39:08;99062.31;;;14.52;35.58
56689;BME280;42565;53.342;-1.534;2024-01-06T09:41:35;99064.71;;;15.13;34.11
56689;BME280;42565;53.342;-1.534;2024-01-06T09:44:03;99068.38;;;15.07;34.41
56689;BME280;42565;53.342;-1.534;2024-01-06T09:46:31;99071.35;;;16.08;33.07
56689;BME280;42565;53.342;-1.534;2024-01-06T09:48:59;99071.92;;;15.96;32.62
56689;BME280;42565;53.342;-1.534;2024-01-06T09:51:26;99077.78;;;16.03;33.27
56689;BME280;42565;53.342;-1.534;2024-01-06T09:53:57;99078.62;;;15.80;33.16
56689;BME280;42565;53.342;-1.534;2024-01-06T09:56:27;99080.31;;;15.08;33.53
56689;BME280;42565;53.342;-1.534;2024-01-06T09:58:54;99081.91;;;14.11;35.34
56689;BME280;42565;53.342;-1.534;2024-01-06T10:01:22;99084.83;;;13.38;36.45
56689;BME280;42565;53.342;-1.534;2024-01-06T10:03:49;99088.56;;;13.48;36.99
56689;BME280;42565;53.342;-1.534;2024-01-06T10:06:16;99094.02;;;13.59;37.76
56689;BME280;42565;53.342;-1.534;2024-01-06T10:08:44;99094.68;;;13.45;37.63
56689;BME280;42565;53.342;-1.534;2024-01-06T10:11:14;99095.61;;;13.96;37.05
56689;BME280;42565;53.342;-1.534;2024-01-06T10:13:41;99103.57;;;14.04;36.27
56689;BME280;42565;53.342;-1.534;2024-01-06T10:16:09;99103.40;;;14.39;36.49
56689;BME280;42565;53.342;-1.534;2024-01-06T10:18:36;99104.91;;;14.66;35.88
56689;BME280;42565;53.342;-1.534;2024-01-06T10:21:03;99109.32;;;14.54;35.86
56689;BME280;42565;53.342;-1.534;2024-01-06T10:23:32;99103.53;;;15.43;34.59
56689;BME280;42565;53.342;-1.534;2024-01-06T10:26:00;99111.39;;;15.54;34.21
56689;BME280;42565;53.342;-1.534;2024-01-06T10:28:28;99110.53;;;15.04;34.93
56689;BME280;42565;53.342;-1.534;2024-01-06T10:30:56;99114.90;;;15.59;34.18
56689;BME280;42565;53.342;-1.534;2024-01-06T10:33:24;99113.34;;;15.37;34.37
56689;BME280;42565;53.342;-1.534;2024-01-06T10:35:52;99115.17;;;15.44;34.26
56689;BME280;42565;53.342;-1.534;2024-01-06T10:38:20;99115.82;;;16.07;33.80
56689;BME280;42565;53.342;-1.534;2024-01-06T10:40:56;99117.52;;;16.59;33.01
56689;BME280;42565;53.342;-1.534;2024-01-06T10:43:25;99123.18;;;16.28;33.04
56689;BME280;42565;53.342;-1.534;2024-01-06T10:45:53;99125.38;;;16.28;33.26
56689;BME280;42565;53.342;-1.534;2024-01-06T10:48:22;99128.91;;;15.75;33.91
56689;BME280;42565;53.342;-1.534;2024-01-06T10:50:51;99129.23;;;14.96;34.70
56689;BME280;42565;53.342;-1.534;2024-01-06T10:53:20;99126.46;;;15.96;33.92
56689;BME280;42565;53.342;-1.534;2024-01-06T10:55:49;99124.67;;;15.45;34.12
56689;BME280;42565;53.342;-1.534;2024-01-06T10:58:17;99127.22;;;14.76;35.29
56689;BME280;42565;53.342;-1.534;2024-01-06T11:00:44;99133.16;;;15.81;34.13
56689;BME280;42565;53.342;-1.534;2024-01-06T11:03:13;99134.72;;;15.24;34.81
56689;BME280;42565;53.342;-1.534;2024-01-06T11:05:41;99134.77;;;15.76;34.05
56689;BME280;42565;53.342;-1.534;2024-01-06T11:08:08;99135.42;;;15.64;33.77
56689;BME280;42565;53.342;-1.534;2024-01-06T11:10:37;99127.85;;;15.68;33.99
56689;BME280;42565;53.342;-1.534;2024-01-06T11:13:09;99130.91;;;16.30;33.91
56689;BME280;42565;53.342;-1.534;2024-01-06T11:15:42;99132.09;;;15.39;34.48
56689;BME280;42565;53.342;-1.534;2024-01-06T11:18:10;99132.74;;;15.39;34.93
56689;BME280;42565;53.342;-1.534;2024-01-06T11:21:33;99133.36;;;16.16;34.53
56689;BME280;42565;53.342;-1.534;2024-01-06T11:24:19;99131.23;;;15.52;34.91
56689;BME280;42565;53.342;-1.534;2024-01-06T11:26:50;99139.20;;;14.91;35.31
56689;BME280;42565;53.342;-1.534;2024-01-06T11:29:17;99140.15;;;15.14;35.42
56689;BME280;42565;53.342;-1.534;2024-01-06T11:32:16;99134.65;;;15.58;34.70
56689;BME280;42565;53.342;-1.534;2024-01-06T11:34:48;99140.16;;;15.33;34.76
56689;BME280;42565;53.342;-1.534;2024-01-06T11:37:17;99138.70;;;15.74;34.91
56689;BME280;42565;53.342;-1.534;2024-01-06T11:39:44;99137.59;;;15.92;34.81
56689;BME280;42565;53.342;-1.534;2024-01-06T11:42:12;99138.01;;;15.25;35.04
56689;BME280;42565;53.342;-1.534;2024-01-06T11:44:43;99140.00;;;15.85;34.79
56689;BME280;42565;53.342;-1.534;2024-01-06T11:47:11;99138.74;;;15.52;35.33
56689;BME280;42565;53.342;-1.534;2024-01-06T11:49:39;99140.19;;;14.55;35.49
56689;BME280;42565;53.342;-1.534;2024-01-06T11:52:06;99141.65;;;14.66;35.93
56689;BME280;42565;53.342;-1.534;2024-01-06T11:54:34;99137.19;;;15.64;35.82
56689;BME280;42565;53.342;-1.534;2024-01-06T11:57:02;99135.80;;;16.23;34.41
56689;BME280;42565;53.342;-1.534;2024-01-06T11:59:29;99137.47;;;16.16;34.43
56689;BME280;42565;53.342;-1.534;2024-01-06T12:01:57;99137.92;;;16.38;34.17
56689;BME280;42565;53.342;-1.534;2024-01-06T12:04:24;99139.17;;;15.36;34.95
56689;BME280;42565;53.342;-1.534;2024-01-06T12:06:52;99143.71;;;14.52;35.89
56689;BME280;42565;53.342;-1.534;2024-01-06T12:09:19;99143.27;;;14.35;36.96
56689;BME280;42565;53.342;-1.534;2024-01-06T12:11:46;99143.60;;;14.69;36.47
56689;BME280;42565;53.342;-1.534;2024-01-06T12:14:13;99143.83;;;14.55;36.33
56689;BME280;42565;53.342;-1.534;2024-01-06T12:16:42;99142.44;;;14.12;36.77
56689;BME280;42565;53.342;-1.534;2024-01-06T12:19:09;99144.13;;;14.88;36.01
56689;BME280;42565;53.342;-1.534;2024-01-06T12:21:37;99146.14;;;14.39;36.26
56689;BME280;42565;53.342;-1.534;2024-01-06T12:24:20;99149.10;;;14.32;36.79
56689;BME280;42565;53.342;-1.534;2024-01-06T12:26:48;99150.12;;;14.58;36.46
56689;BME280;42565;53.342;-1.534;2024-01-06T12:29:17;99152.21;;;14.35;37.05
56689;BME280;42565;53.342;-1.534;2024-01-06T12:31:44;99152.42;;;13.73;37.24
56689;BME280;42565;53.342;-1.534;2024-01-06T12:34:12;99153.50;;;13.46;38.55
56689;BME280;42565;53.342;-1.534;2024-01-06T12:36:40;99156.71;;;13.79;37.86
56689;BME280;42565;53.342;-1.534;2024-01-06T12:39:11;99155.94;;;14.37;38.13
56689;BME280;42565;53.342;-1.534;2024-01-06T12:41:39;99154.93;;;14.14;37.98
56689;BME280;42565;53.342;-1.534;2024-01-06T12:44:06;99157.38;;;14.54;37.46
56689;BME280;42565;53.342;-1.534;2024-01-06T12:46:34;99155.75;;;13.98;37.57
56689;BME280;42565;53.342;-1.534;2024-01-06T12:49:01;99162.47;;;13.54;38.47
56689;BME280;42565;53.342;-1.534;2024-01-06T12:51:29;99162.34;;;13.79;38.06
56689;BME280;42565;53.342;-1.534;2024-01-06T12:53:56;99160.03;;;13.72;38.51
56689;BME280;42565;53.342;-1.534;2024-01-06T12:56:24;99159.10;;;12.81;39.34
56689;BME280;42565;53.342;-1.534;2024-01-06T12:58:50;99161.58;;;12.53;40.78